sensor_id;sensor_type;location;lat;lon;timestamp;P1;durP1;ratioP1;P2;durP2;ratioP2
1460;SDS011;724;49.910;12.530;2023-03-20T00:00:04;4.00;;;3.80;;
1460;SDS011;724;49.910;12.530;2023-03-20T00:02:34;3.90;;;3.70;;
1460;SDS011;724;49.910;12.530;2023-03-20T00:05:05;3.60;;;3.40;;
1460;SDS011;724;49.910;12.530;2023-03-20T00:07:40;3.60;;;3.40;;
1460;SDS011;724;49.910;12.530;2023-03-20T00:10:09;3.10;;;2.90;;
1460;SDS011;724;49.910;12.530;2023-03-20T00:12:36;3.60;;;3.40;;
1460;SDS011;724;49.910;12.530;2023-03-20T00:15:04;3.80;;;3.60;;
1460;SDS011;724;49.910;12.530;2023-03-20T00:17:36;3.97;;;3.78;;
1460;SDS011;724;49.910;12.530;2023-03-20T00:20:03;4.00;;;3.80;;
1460;SDS011;724;49.910;12.530;2023-03-20T00:22:30;3.90;;;3.70;;
1460;SDS011;724;49.910;12.530;2023-03-20T00:24:57;4.30;;;4.00;;
1460;SDS011;724;49.910;12.530;2023-03-20T00:27:25;4.70;;;4.40;;
1460;SDS011;724;49.910;12.530;2023-03-20T00:29:51;4.68;;;4.38;;
1460;SDS011;724;49.910;12.530;2023-03-20T00:32:18;4.40;;;4.10;;
1460;SDS011;724;49.910;12.530;2023-03-20T00:34:45;4.50;;;4.20;;
1460;SDS011;724;49.910;12.530;2023-03-20T00:37:12;4.70;;;4.40;;
1460;SDS011;724;49.910;12.530;2023-03-20T00:39:38;5.32;;;5.03;;
1460;SDS011;724;49.910;12.530;2023-03-20T00:42:05;5.50;;;5.20;;
1460;SDS011;724;49.910;12.530;2023-03-20T00:44:41;5.20;;;4.90;;
1460;SDS011;724;49.910;12.530;2023-03-20T00:47:16;5.25;;;4.95;;
1460;SDS011;724;49.910;12.530;2023-03-20T00:49:45;5.15;;;4.85;;
1460;SDS011;724;49.910;12.530;2023-03-20T00:52:14;4.95;;;4.65;;
1460;SDS011;724;49.910;12.530;2023-03-20T00:54:43;5.60;;;5.30;;
1460;SDS011;724;49.910;12.530;2023-03-20T00:57:11;5.60;;;5.30;;
1460;SDS011;724;49.910;12.530;2023-03-20T00:59:46;5.20;;;4.90;;
1460;SDS011;724;49.910;12.530;2023-03-20T01:02:17;4.72;;;4.43;;
1460;SDS011;724;49.910;12.530;2023-03-20T01:04:45;5.00;;;4.70;;
1460;SDS011;724;49.910;12.530;2023-03-20T01:07:12;4.70;;;4.40;;
1460;SDS011;724;49.910;12.530;2023-03-20T01:09:40;3.80;;;3.60;;
1460;SDS011;724;49.910;12.530;2023-03-20T01:12:08;4.00;;;3.80;;
1460;SDS011;724;49.910;12.530;2023-03-20T01:14:37;3.90;;;3.70;;
1460;SDS011;724;49.910;12.530;2023-03-20T01:17:05;3.80;;;3.60;;
1460;SDS011;724;49.910;12.530;2023-03-20T01:19:41;3.83;;;3.63;;
1460;SDS011;724;49.910;12.530;2023-03-20T01:22:08;3.40;;;3.20;;
1460;SDS011;724;49.910;12.530;2023-03-20T01:24:35;3.40;;;3.20;;
1460;SDS011;724;49.910;12.530;2023-03-20T01:27:02;3.40;;;3.20;;
1460;SDS011;724;49.910;12.530;2023-03-20T01:29:30;2.80;;;2.60;;
1460;SDS011;724;49.910;12.530;2023-03-20T01:31:57;3.45;;;3.25;;
1460;SDS011;724;49.910;12.530;2023-03-20T01:34:25;3.60;;;3.40;;
1460;SDS011;724;49.910;12.530;2023-03-20T01:36:53;3.50;;;3.30;;
1460;SDS011;724;49.910;12.530;2023-03-20T01:39:22;3.75;;;3.55;;
1460;SDS011;724;49.910;12.530;2023-03-20T01:41:57;3.65;;;3.45;;
1460;SDS011;724;49.910;12.530;2023-03-20T01:44:25;3.80;;;3.60;;
1460;SDS011;724;49.910;12.530;2023-03-20T01:46:55;3.50;;;3.30;;
1460;SDS011;724;49.910;12.530;2023-03-20T01:52:43;2.80;;;2.60;;
1460;SDS011;724;49.910;12.530;2023-03-20T01:55:11;3.30;;;3.10;;
1460;SDS011;724;49.910;12.530;2023-03-20T01:57:38;2.92;;;2.72;;
1460;SDS011;724;49.910;12.530;2023-03-20T02:00:07;3.25;;;3.05;;
1460;SDS011;724;49.910;12.530;2023-03-20T02:02:38;3.30;;;3.10;;
1460;SDS011;724;49.910;12.530;2023-03-20T02:05:07;3.60;;;3.40;;
1460;SDS011;724;49.910;12.530;2023-03-20T02:07:37;3.50;;;3.30;;
1460;SDS011;724;49.910;12.530;2023-03-20T02:10:05;3.05;;;2.85;;
1460;SDS011;724;49.910;12.530;2023-03-20T02:12:36;3.70;;;3.50;;
1460;SDS011;724;49.910;12.530;2023-03-20T02:15:04;3.90;;;3.70;;
1460;SDS011;724;49.910;12.530;2023-03-20T02:17:32;3.55;;;3.35;;
1460;SDS011;724;49.910;12.530;2023-03-20T02:20:02;2.97;;;2.78;;
1460;SDS011;724;49.910;12.530;2023-03-20T02:25:48;2.70;;;2.50;;
1460;SDS011;724;49.910;12.530;2023-03-20T02:31:54;2.90;;;2.70;;
1460;SDS011;724;49.910;12.530;2023-03-20T02:34:55;2.90;;;2.70;;
1460;SDS011;724;49.910;12.530;2023-03-20T02:40:43;2.70;;;2.50;;
1460;SDS011;724;49.910;12.530;2023-03-20T02:43:17;2.83;;;2.63;;
1460;SDS011;724;49.910;12.530;2023-03-20T02:45:48;3.00;;;2.80;;
1460;SDS011;724;49.910;12.530;2023-03-20T02:48:24;3.10;;;2.90;;
1460;SDS011;724;49.910;12.530;2023-03-20T02:50:59;3.17;;;2.97;;
1460;SDS011;724;49.910;12.530;2023-03-20T02:53:33;2.90;;;2.70;;
1460;SDS011;724;49.910;12.530;2023-03-20T02:56:07;2.70;;;2.50;;
1460;SDS011;724;49.910;12.530;2023-03-20T02:58:42;2.72;;;2.53;;
1460;SDS011;724;49.910;12.530;2023-03-20T03:01:15;3.00;;;2.80;;
1460;SDS011;724;49.910;12.530;2023-03-20T03:03:47;2.60;;;2.40;;
1460;SDS011;724;49.910;12.530;2023-03-20T03:06:17;2.30;;;2.10;;
1460;SDS011;724;49.910;12.530;2023-03-20T03:08:50;2.50;;;2.30;;
1460;SDS011;724;49.910;12.530;2023-03-20T03:11:21;2.50;;;2.30;;
1460;SDS011;724;49.910;12.530;2023-03-20T03:13:49;2.60;;;2.40;;
1460;SDS011;724;49.910;12.530;2023-03-20T03:16:20;2.80;;;2.60;;
1460;SDS011;724;49.910;12.530;2023-03-20T03:18:49;2.80;;;2.60;;
1460;SDS011;724;49.910;12.530;2023-03-20T03:21:24;2.80;;;2.60;;
1460;SDS011;724;49.910;12.530;2023-03-20T03:23:55;2.60;;;2.40;;
1460;SDS011;724;49.910;12.530;2023-03-20T03:26:23;2.60;;;2.40;;
1460;SDS011;724;49.910;12.530;2023-03-20T03:28:53;2.80;;;2.60;;
1460;SDS011;724;49.910;12.530;2023-03-20T03:31:22;2.95;;;2.75;;
1460;SDS011;724;49.910;12.530;2023-03-20T03:33:51;3.40;;;3.20;;
1460;SDS011;724;49.910;12.530;2023-03-20T03:36:23;3.40;;;3.20;;
1460;SDS011;724;49.910;12.530;2023-03-20T03:39:01;4.00;;;3.80;;
1460;SDS011;724;49.910;12.530;2023-03-20T03:41:38;4.13;;;3.90;;
1460;SDS011;724;49.910;12.530;2023-03-20T03:44:10;4.38;;;4.07;;
1460;SDS011;724;49.910;12.530;2023-03-20T03:46:42;4.90;;;4.60;;
1460;SDS011;724;49.910;12.530;2023-03-20T03:49:14;5.20;;;4.90;;
1460;SDS011;724;49.910;12.530;2023-03-20T03:51:44;5.50;;;5.20;;
1460;SDS011;724;49.910;12.530;2023-03-20T03:54:17;5.30;;;5.00;;
1460;SDS011;724;49.910;12.530;2023-03-20T03:56:47;4.10;;;3.90;;
1460;SDS011;724;49.910;12.530;2023-03-20T03:59:17;3.40;;;3.20;;
1460;SDS011;724;49.910;12.530;2023-03-20T04:01:47;3.08;;;2.88;;
1460;SDS011;724;49.910;12.530;2023-03-20T04:04:17;3.00;;;2.80;;
1460;SDS011;724;49.910;12.530;2023-03-20T04:06:45;2.60;;;2.40;;
1460;SDS011;724;49.910;12.530;2023-03-20T04:09:12;2.60;;;2.40;;
1460;SDS011;724;49.910;12.530;2023-03-20T04:11:40;2.40;;;2.20;;
1460;SDS011;724;49.910;12.530;2023-03-20T04:14:07;2.40;;;2.20;;
1460;SDS011;724;49.910;12.530;2023-03-20T04:16:34;2.30;;;2.10;;
1460;SDS011;724;49.910;12.530;2023-03-20T04:19:00;2.40;;;2.20;;
1460;SDS011;724;49.910;12.530;2023-03-20T04:21:28;2.00;;;1.90;;
1460;SDS011;724;49.910;12.530;2023-03-20T04:23:54;2.60;;;2.40;;
1460;SDS011;724;49.910;12.530;2023-03-20T04:26:21;3.00;;;2.80;;
1460;SDS011;724;49.910;12.530;2023-03-20T04:28:49;3.50;;;3.30;;
1460;SDS011;724;49.910;12.530;2023-03-20T04:31:16;3.80;;;3.60;;
1460;SDS011;724;49.910;12.530;2023-03-20T04:33:43;3.25;;;3.05;;
1460;SDS011;724;49.910;12.530;2023-03-20T04:36:10;3.90;;;3.70;;
1460;SDS011;724;49.910;12.530;2023-03-20T04:38:38;3.83;;;3.63;;
1460;SDS011;724;49.910;12.530;2023-03-20T04:41:05;3.70;;;3.50;;
1460;SDS011;724;49.910;12.530;2023-03-20T04:43:32;3.30;;;3.10;;
1460;SDS011;724;49.910;12.530;2023-03-20T04:46:01;3.00;;;2.80;;
1460;SDS011;724;49.910;12.530;2023-03-20T04:48:28;2.30;;;2.10;;
1460;SDS011;724;49.910;12.530;2023-03-20T04:50:54;1.20;;;1.10;;
1460;SDS011;724;49.910;12.530;2023-03-20T04:53:21;1.00;;;0.90;;
1460;SDS011;724;49.910;12.530;2023-03-20T04:55:48;0.80;;;0.70;;
1460;SDS011;724;49.910;12.530;2023-03-20T04:58:15;0.80;;;0.70;;
1460;SDS011;724;49.910;12.530;2023-03-20T05:00:42;0.70;;;0.60;;
1460;SDS011;724;49.910;12.530;2023-03-20T05:03:11;0.50;;;0.40;;
1460;SDS011;724;49.910;12.530;2023-03-20T05:05:38;0.50;;;0.40;;
1460;SDS011;724;49.910;12.530;2023-03-20T05:08:04;0.50;;;0.40;;
1460;SDS011;724;49.910;12.530;2023-03-20T05:10:31;0.50;;;0.40;;
1460;SDS011;724;49.910;12.530;2023-03-20T05:12:58;0.50;;;0.40;;
1460;SDS011;724;49.910;12.530;2023-03-20T05:15:25;0.40;;;0.30;;
1460;SDS011;724;49.910;12.530;2023-03-20T05:17:52;0.40;;;0.30;;
1460;SDS011;724;49.910;12.530;2023-03-20T05:20:20;0.47;;;0.38;;
1460;SDS011;724;49.910;12.530;2023-03-20T05:22:47;0.40;;;0.30;;
1460;SDS011;724;49.910;12.530;2023-03-20T05:25:15;0.43;;;0.32;;
1460;SDS011;724;49.910;12.530;2023-03-20T05:27:43;0.40;;;0.30;;
1460;SDS011;724;49.910;12.530;2023-03-20T05:30:11;0.40;;;0.30;;
1460;SDS011;724;49.910;12.530;2023-03-20T05:32:38;0.40;;;0.30;;
1460;SDS011;724;49.910;12.530;2023-03-20T05:35:06;0.40;;;0.30;;
1460;SDS011;724;49.910;12.530;2023-03-20T05:37:35;0.30;;;0.20;;
1460;SDS011;724;49.910;12.530;2023-03-20T05:40:02;0.30;;;0.20;;
1460;SDS011;724;49.910;12.530;2023-03-20T05:42:30;0.30;;;0.20;;
1460;SDS011;724;49.910;12.530;2023-03-20T05:44:56;0.30;;;0.20;;
1460;SDS011;724;49.910;12.530;2023-03-20T05:47:23;0.30;;;0.20;;
1460;SDS011;724;49.910;12.530;2023-03-20T05:49:50;0.30;;;0.20;;
1460;SDS011;724;49.910;12.530;2023-03-20T05:52:17;0.22;;;0.13;;
1460;SDS011;724;49.910;12.530;2023-03-20T05:54:45;0.30;;;0.20;;
1460;SDS011;724;49.910;12.530;2023-03-20T05:57:12;0.40;;;0.30;;
1460;SDS011;724;49.910;12.530;2023-03-20T05:59:39;0.40;;;0.30;;
1460;SDS011;724;49.910;12.530;2023-03-20T06:02:06;0.40;;;0.30;;
1460;SDS011;724;49.910;12.530;2023-03-20T06:04:32;0.40;;;0.30;;
1460;SDS011;724;49.910;12.530;2023-03-20T06:07:01;0.52;;;0.43;;
1460;SDS011;724;49.910;12.530;2023-03-20T06:09:28;0.50;;;0.40;;
1460;SDS011;724;49.910;12.530;2023-03-20T06:11:57;0.63;;;0.52;;
1460;SDS011;724;49.910;12.530;2023-03-20T06:14:23;0.80;;;0.70;;
1460;SDS011;724;49.910;12.530;2023-03-20T06:16:50;0.98;;;0.88;;
1460;SDS011;724;49.910;12.530;2023-03-20T06:19:18;0.90;;;0.80;;
1460;SDS011;724;49.910;12.530;2023-03-20T06:21:45;0.80;;;0.70;;
1460;SDS011;724;49.910;12.530;2023-03-20T06:24:12;0.80;;;0.70;;
1460;SDS011;724;49.910;12.530;2023-03-20T06:26:39;0.70;;;0.60;;
1460;SDS011;724;49.910;12.530;2023-03-20T06:29:07;0.65;;;0.55;;
1460;SDS011;724;49.910;12.530;2023-03-20T06:31:34;0.60;;;0.50;;
1460;SDS011;724;49.910;12.530;2023-03-20T06:34:01;0.70;;;0.60;;
1460;SDS011;724;49.910;12.530;2023-03-20T06:36:28;0.70;;;0.60;;
1460;SDS011;724;49.910;12.530;2023-03-20T06:38:56;0.82;;;0.73;;
1460;SDS011;724;49.910;12.530;2023-03-20T06:41:22;0.90;;;0.80;;
1460;SDS011;724;49.910;12.530;2023-03-20T06:43:49;0.95;;;0.85;;
1460;SDS011;724;49.910;12.530;2023-03-20T06:46:17;1.00;;;0.90;;
1460;SDS011;724;49.910;12.530;2023-03-20T06:48:44;1.15;;;1.05;;
1460;SDS011;724;49.910;12.530;2023-03-20T06:51:11;1.10;;;1.00;;
1460;SDS011;724;49.910;12.530;2023-03-20T06:53:38;1.30;;;1.20;;
1460;SDS011;724;49.910;12.530;2023-03-20T06:56:06;1.30;;;1.20;;
1460;SDS011;724;49.910;12.530;2023-03-20T06:58:33;1.30;;;1.20;;
1460;SDS011;724;49.910;12.530;2023-03-20T07:01:00;1.40;;;1.30;;
1460;SDS011;724;49.910;12.530;2023-03-20T07:03:28;1.40;;;1.30;;
1460;SDS011;724;49.910;12.530;2023-03-20T07:05:55;1.50;;;1.40;;
1460;SDS011;724;49.910;12.530;2023-03-20T07:08:22;1.50;;;1.40;;
1460;SDS011;724;49.910;12.530;2023-03-20T07:10:48;1.20;;;1.10;;
1460;SDS011;724;49.910;12.530;2023-03-20T07:13:15;1.40;;;1.30;;
1460;SDS011;724;49.910;12.530;2023-03-20T07:15:42;1.52;;;1.42;;
1460;SDS011;724;49.910;12.530;2023-03-20T07:18:09;1.80;;;1.70;;
1460;SDS011;724;49.910;12.530;2023-03-20T07:20:37;2.20;;;2.00;;
1460;SDS011;724;49.910;12.530;2023-03-20T07:23:04;2.50;;;2.30;;
1460;SDS011;724;49.910;12.530;2023-03-20T07:25:30;3.00;;;2.80;;
1460;SDS011;724;49.910;12.530;2023-03-20T07:27:58;3.70;;;3.50;;
1460;SDS011;724;49.910;12.530;2023-03-20T07:30:25;3.90;;;3.70;;
1460;SDS011;724;49.910;12.530;2023-03-20T07:32:51;4.50;;;4.20;;
1460;SDS011;724;49.910;12.530;2023-03-20T07:35:18;5.07;;;4.78;;
1460;SDS011;724;49.910;12.530;2023-03-20T07:37:46;4.97;;;4.68;;
1460;SDS011;724;49.910;12.530;2023-03-20T07:40:13;5.60;;;5.30;;
1460;SDS011;724;49.910;12.530;2023-03-20T07:42:40;5.60;;;5.30;;
1460;SDS011;724;49.910;12.530;2023-03-20T07:45:07;5.60;;;5.30;;
1460;SDS011;724;49.910;12.530;2023-03-20T07:47:34;6.10;;;5.80;;
1460;SDS011;724;49.910;12.530;2023-03-20T07:50:01;6.00;;;5.70;;
1460;SDS011;724;49.910;12.530;2023-03-20T07:52:27;6.40;;;6.00;;
1460;SDS011;724;49.910;12.530;2023-03-20T07:54:56;6.75;;;6.35;;
1460;SDS011;724;49.910;12.530;2023-03-20T07:57:22;6.30;;;5.95;;
1460;SDS011;724;49.910;12.530;2023-03-20T07:59:49;5.60;;;5.30;;
1460;SDS011;724;49.910;12.530;2023-03-20T08:02:16;5.30;;;5.00;;
1460;SDS011;724;49.910;12.530;2023-03-20T08:04:43;5.20;;;4.90;;
1460;SDS011;724;49.910;12.530;2023-03-20T08:07:11;4.97;;;4.68;;
1460;SDS011;724;49.910;12.530;2023-03-20T08:09:38;5.30;;;5.00;;
1460;SDS011;724;49.910;12.530;2023-03-20T08:12:07;5.32;;;5.03;;
1460;SDS011;724;49.910;12.530;2023-03-20T08:14:33;5.90;;;5.60;;
1460;SDS011;724;49.910;12.530;2023-03-20T08:17:02;5.70;;;5.40;;
1460;SDS011;724;49.910;12.530;2023-03-20T08:19:29;6.00;;;5.70;;
1460;SDS011;724;49.910;12.530;2023-03-20T08:21:56;5.75;;;5.45;;
1460;SDS011;724;49.910;12.530;2023-03-20T08:24:22;5.55;;;5.25;;
1460;SDS011;724;49.910;12.530;2023-03-20T08:26:49;5.93;;;5.63;;
1460;SDS011;724;49.910;12.530;2023-03-20T08:29:18;5.00;;;4.70;;
1460;SDS011;724;49.910;12.530;2023-03-20T08:31:44;4.57;;;4.28;;
1460;SDS011;724;49.910;12.530;2023-03-20T08:34:11;4.10;;;3.90;;
1460;SDS011;724;49.910;12.530;2023-03-20T08:36:38;3.90;;;3.70;;
1460;SDS011;724;49.910;12.530;2023-03-20T08:39:05;3.80;;;3.60;;
1460;SDS011;724;49.910;12.530;2023-03-20T08:41:33;4.40;;;4.10;;
1460;SDS011;724;49.910;12.530;2023-03-20T08:44:02;4.40;;;4.10;;
1460;SDS011;724;49.910;12.530;2023-03-20T08:46:31;4.40;;;4.10;;
1460;SDS011;724;49.910;12.530;2023-03-20T08:48:57;4.40;;;4.10;;
1460;SDS011;724;49.910;12.530;2023-03-20T08:51:24;4.00;;;3.80;;
1460;SDS011;724;49.910;12.530;2023-03-20T08:53:52;4.00;;;3.80;;
1460;SDS011;724;49.910;12.530;2023-03-20T08:56:18;4.90;;;4.60;;
1460;SDS011;724;49.910;12.530;2023-03-20T08:58:45;5.15;;;4.85;;
1460;SDS011;724;49.910;12.530;2023-03-20T09:01:12;5.30;;;5.00;;
1460;SDS011;724;49.910;12.530;2023-03-20T09:03:40;6.00;;;5.70;;
1460;SDS011;724;49.910;12.530;2023-03-20T09:06:07;7.80;;;7.40;;
1460;SDS011;724;49.910;12.530;2023-03-20T09:08:36;8.27;;;7.88;;
1460;SDS011;724;49.910;12.530;2023-03-20T09:11:03;8.50;;;8.00;;
1460;SDS011;724;49.910;12.530;2023-03-20T09:13:31;8.80;;;8.30;;
1460;SDS011;724;49.910;12.530;2023-03-20T09:15:58;9.10;;;8.60;;
1460;SDS011;724;49.910;12.530;2023-03-20T09:18:24;10.00;;;9.50;;
1460;SDS011;724;49.910;12.530;2023-03-20T09:20:53;10.30;;;9.80;;
1460;SDS011;724;49.910;12.530;2023-03-20T09:23:20;10.00;;;9.50;;
1460;SDS011;724;49.910;12.530;2023-03-20T09:25:47;10.20;;;9.70;;
1460;SDS011;724;49.910;12.530;2023-03-20T09:28:14;10.30;;;9.80;;
1460;SDS011;724;49.910;12.530;2023-03-20T09:30:41;11.20;;;10.60;;
1460;SDS011;724;49.910;12.530;2023-03-20T09:33:08;12.50;;;11.90;;
1460;SDS011;724;49.910;12.530;2023-03-20T09:35:38;13.45;;;12.75;;
1460;SDS011;724;49.910;12.530;2023-03-20T09:38:10;13.15;;;12.45;;
1460;SDS011;724;49.910;12.530;2023-03-20T09:40:40;13.05;;;12.35;;
1460;SDS011;724;49.910;12.530;2023-03-20T09:43:18;13.00;;;12.30;;
1460;SDS011;724;49.910;12.530;2023-03-20T09:45:59;13.50;;;12.80;;
1460;SDS011;724;49.910;12.530;2023-03-20T09:48:34;13.00;;;12.30;;
1460;SDS011;724;49.910;12.530;2023-03-20T09:51:10;12.75;;;12.05;;
1460;SDS011;724;49.910;12.530;2023-03-20T09:53:47;13.00;;;12.30;;
1460;SDS011;724;49.910;12.530;2023-03-20T09:56:27;12.90;;;12.20;;
1460;SDS011;724;49.910;12.530;2023-03-20T09:59:04;12.80;;;12.10;;
1460;SDS011;724;49.910;12.530;2023-03-20T10:01:34;12.50;;;11.90;;
1460;SDS011;724;49.910;12.530;2023-03-20T10:04:09;12.70;;;12.00;;
1460;SDS011;724;49.910;12.530;2023-03-20T10:06:43;12.50;;;11.90;;
1460;SDS011;724;49.910;12.530;2023-03-20T10:09:13;12.70;;;12.00;;
1460;SDS011;724;49.910;12.530;2023-03-20T10:14:48;12.80;;;12.10;;
1460;SDS011;724;49.910;12.530;2023-03-20T10:17:26;13.30;;;12.60;;
1460;SDS011;724;49.910;12.530;2023-03-20T10:20:03;13.75;;;13.05;;
1460;SDS011;724;49.910;12.530;2023-03-20T10:22:38;13.70;;;13.00;;
1460;SDS011;724;49.910;12.530;2023-03-20T10:25:17;13.90;;;13.20;;
1460;SDS011;724;49.910;12.530;2023-03-20T10:27:48;13.90;;;13.20;;
1460;SDS011;724;49.910;12.530;2023-03-20T10:33:18;14.13;;;13.43;;
1460;SDS011;724;49.910;12.530;2023-03-20T10:35:57;13.38;;;12.68;;
1460;SDS011;724;49.910;12.530;2023-03-20T10:38:33;13.20;;;12.50;;
1460;SDS011;724;49.910;12.530;2023-03-20T10:41:08;13.18;;;12.48;;
1460;SDS011;724;49.910;12.530;2023-03-20T10:43:40;12.50;;;11.90;;
1460;SDS011;724;49.910;12.530;2023-03-20T10:46:09;12.70;;;12.00;;
1460;SDS011;724;49.910;12.530;2023-03-20T10:48:40;11.00;;;10.40;;
1460;SDS011;724;49.910;12.530;2023-03-20T10:51:11;10.75;;;10.15;;
1460;SDS011;724;49.910;12.530;2023-03-20T10:53:40;10.20;;;9.70;;
1460;SDS011;724;49.910;12.530;2023-03-20T10:56:14;10.07;;;9.57;;
1460;SDS011;724;49.910;12.530;2023-03-20T10:58:46;10.32;;;9.82;;
1460;SDS011;724;49.910;12.530;2023-03-20T11:01:15;11.20;;;10.60;;
1460;SDS011;724;49.910;12.530;2023-03-20T11:03:44;11.30;;;10.70;;
1460;SDS011;724;49.910;12.530;2023-03-20T11:06:13;11.48;;;10.88;;
1460;SDS011;724;49.910;12.530;2023-03-20T11:08:46;11.30;;;10.70;;
1460;SDS011;724;49.910;12.530;2023-03-20T11:11:21;11.50;;;10.90;;
1460;SDS011;724;49.910;12.530;2023-03-20T11:13:50;12.20;;;11.60;;
1460;SDS011;724;49.910;12.530;2023-03-20T11:16:19;12.80;;;12.10;;
1460;SDS011;724;49.910;12.530;2023-03-20T11:18:48;13.00;;;12.30;;
1460;SDS011;724;49.910;12.530;2023-03-20T11:21:17;13.00;;;12.30;;
1460;SDS011;724;49.910;12.530;2023-03-20T11:23:46;13.63;;;12.93;;
1460;SDS011;724;49.910;12.530;2023-03-20T11:26:15;13.80;;;13.10;;
1460;SDS011;724;49.910;12.530;2023-03-20T11:28:47;14.45;;;13.75;;
1460;SDS011;724;49.910;12.530;2023-03-20T11:31:17;14.25;;;13.55;;
1460;SDS011;724;49.910;12.530;2023-03-20T11:33:49;14.15;;;13.45;;
1460;SDS011;724;49.910;12.530;2023-03-20T11:36:20;14.38;;;13.68;;
1460;SDS011;724;49.910;12.530;2023-03-20T11:38:49;14.55;;;13.85;;
1460;SDS011;724;49.910;12.530;2023-03-20T11:41:18;14.80;;;14.00;;
1460;SDS011;724;49.910;12.530;2023-03-20T11:43:50;15.13;;;14.32;;
1460;SDS011;724;49.910;12.530;2023-03-20T11:46:17;14.30;;;13.60;;
1460;SDS011;724;49.910;12.530;2023-03-20T11:48:47;14.00;;;13.30;;
1460;SDS011;724;49.910;12.530;2023-03-20T11:51:28;13.50;;;12.80;;
1460;SDS011;724;49.910;12.530;2023-03-20T11:53:57;13.68;;;12.98;;
1460;SDS011;724;49.910;12.530;2023-03-20T11:56:27;13.70;;;13.00;;
1460;SDS011;724;49.910;12.530;2023-03-20T11:58:58;13.60;;;12.90;;
1460;SDS011;724;49.910;12.530;2023-03-20T12:01:29;13.80;;;13.10;;
1460;SDS011;724;49.910;12.530;2023-03-20T12:04:04;13.60;;;12.90;;
1460;SDS011;724;49.910;12.530;2023-03-20T12:06:37;13.60;;;12.90;;
1460;SDS011;724;49.910;12.530;2023-03-20T12:09:14;13.70;;;13.00;;
1460;SDS011;724;49.910;12.530;2023-03-20T12:11:58;14.50;;;13.80;;
1460;SDS011;724;49.910;12.530;2023-03-20T12:14:31;14.60;;;13.90;;
1460;SDS011;724;49.910;12.530;2023-03-20T12:17:14;15.10;;;14.30;;
1460;SDS011;724;49.910;12.530;2023-03-20T12:20:00;15.35;;;14.55;;
1460;SDS011;724;49.910;12.530;2023-03-20T12:22:32;15.43;;;14.63;;
1460;SDS011;724;49.910;12.530;2023-03-20T12:25:06;15.27;;;14.48;;
1460;SDS011;724;49.910;12.530;2023-03-20T12:27:42;15.20;;;14.40;;
1460;SDS011;724;49.910;12.530;2023-03-20T12:30:15;15.10;;;14.30;;
1460;SDS011;724;49.910;12.530;2023-03-20T12:32:49;15.70;;;14.90;;
1460;SDS011;724;49.910;12.530;2023-03-20T12:35:21;16.00;;;15.20;;
1460;SDS011;724;49.910;12.530;2023-03-20T12:37:52;16.10;;;15.30;;
1460;SDS011;724;49.910;12.530;2023-03-20T12:40:19;16.30;;;15.50;;
1460;SDS011;724;49.910;12.530;2023-03-20T12:42:59;16.40;;;15.60;;
1460;SDS011;724;49.910;12.530;2023-03-20T12:45:36;16.30;;;15.50;;
1460;SDS011;724;49.910;12.530;2023-03-20T12:48:09;16.20;;;15.40;;
1460;SDS011;724;49.910;12.530;2023-03-20T12:50:46;16.30;;;15.50;;
1460;SDS011;724;49.910;12.530;2023-03-20T12:53:38;16.30;;;15.50;;
1460;SDS011;724;49.910;12.530;2023-03-20T12:56:16;16.35;;;15.55;;
1460;SDS011;724;49.910;12.530;2023-03-20T12:58:53;16.20;;;15.40;;
1460;SDS011;724;49.910;12.530;2023-03-20T13:01:27;16.20;;;15.40;;
1460;SDS011;724;49.910;12.530;2023-03-20T13:04:11;16.20;;;15.40;;
1460;SDS011;724;49.910;12.530;2023-03-20T13:06:50;15.50;;;14.70;;
1460;SDS011;724;49.910;12.530;2023-03-20T13:12:14;15.50;;;14.70;;
1460;SDS011;724;49.910;12.530;2023-03-20T13:14:55;15.55;;;14.75;;
1460;SDS011;724;49.910;12.530;2023-03-20T13:17:32;15.27;;;14.48;;
1460;SDS011;724;49.910;12.530;2023-03-20T13:20:10;15.65;;;14.85;;
1460;SDS011;724;49.910;12.530;2023-03-20T13:22:47;15.48;;;14.68;;
1460;SDS011;724;49.910;12.530;2023-03-20T13:25:28;15.00;;;14.20;;
1460;SDS011;724;49.910;12.530;2023-03-20T13:28:08;15.60;;;14.80;;
1460;SDS011;724;49.910;12.530;2023-03-20T13:30:42;15.15;;;14.35;;
1460;SDS011;724;49.910;12.530;2023-03-20T13:33:19;15.10;;;14.30;;
1460;SDS011;724;49.910;12.530;2023-03-20T13:35:57;15.63;;;14.82;;
1460;SDS011;724;49.910;12.530;2023-03-20T13:38:30;15.93;;;15.13;;
1460;SDS011;724;49.910;12.530;2023-03-20T13:41:01;16.20;;;15.40;;
1460;SDS011;724;49.910;12.530;2023-03-20T13:43:33;16.40;;;15.60;;
1460;SDS011;724;49.910;12.530;2023-03-20T13:46:05;15.90;;;15.10;;
1460;SDS011;724;49.910;12.530;2023-03-20T13:48:36;16.02;;;15.23;;
1460;SDS011;724;49.910;12.530;2023-03-20T13:51:07;15.40;;;14.60;;
1460;SDS011;724;49.910;12.530;2023-03-20T13:53:44;15.40;;;14.60;;
1460;SDS011;724;49.910;12.530;2023-03-20T13:56:22;15.20;;;14.40;;
1460;SDS011;724;49.910;12.530;2023-03-20T13:59:12;15.43;;;14.63;;
1460;SDS011;724;49.910;12.530;2023-03-20T14:01:56;15.10;;;14.30;;
1460;SDS011;724;49.910;12.530;2023-03-20T14:04:27;15.10;;;14.30;;
1460;SDS011;724;49.910;12.530;2023-03-20T14:06:56;15.10;;;14.30;;
1460;SDS011;724;49.910;12.530;2023-03-20T14:09:25;15.45;;;14.65;;
1460;SDS011;724;49.910;12.530;2023-03-20T14:11:58;15.10;;;14.30;;
1460;SDS011;724;49.910;12.530;2023-03-20T14:14:30;14.90;;;14.10;;
1460;SDS011;724;49.910;12.530;2023-03-20T14:17:03;15.00;;;14.20;;
1460;SDS011;724;49.910;12.530;2023-03-20T14:19:40;14.90;;;14.10;;
1460;SDS011;724;49.910;12.530;2023-03-20T14:22:08;15.20;;;14.40;;
1460;SDS011;724;49.910;12.530;2023-03-20T14:24:40;14.90;;;14.10;;
1460;SDS011;724;49.910;12.530;2023-03-20T14:27:16;14.90;;;14.10;;
1460;SDS011;724;49.910;12.530;2023-03-20T14:29:46;14.50;;;13.80;;
1460;SDS011;724;49.910;12.530;2023-03-20T14:32:28;14.50;;;13.80;;
1460;SDS011;724;49.910;12.530;2023-03-20T14:35:00;14.40;;;13.70;;
1460;SDS011;724;49.910;12.530;2023-03-20T14:38:03;14.48;;;13.77;;
1460;SDS011;724;49.910;12.530;2023-03-20T14:40:52;14.50;;;13.80;;
1460;SDS011;724;49.910;12.530;2023-03-20T14:43:30;14.80;;;14.02;;
1460;SDS011;724;49.910;12.530;2023-03-20T14:46:07;14.80;;;14.00;;
1460;SDS011;724;49.910;12.530;2023-03-20T14:48:44;14.90;;;14.10;;
1460;SDS011;724;49.910;12.530;2023-03-20T14:51:22;15.00;;;14.20;;
1460;SDS011;724;49.910;12.530;2023-03-20T14:53:55;15.20;;;14.40;;
1460;SDS011;724;49.910;12.530;2023-03-20T14:56:26;15.20;;;14.40;;
1460;SDS011;724;49.910;12.530;2023-03-20T14:58:56;15.10;;;14.30;;
1460;SDS011;724;49.910;12.530;2023-03-20T15:04:26;15.48;;;14.68;;
1460;SDS011;724;49.910;12.530;2023-03-20T15:06:58;15.07;;;14.27;;
1460;SDS011;724;49.910;12.530;2023-03-20T15:09:29;14.80;;;14.00;;
1460;SDS011;724;49.910;12.530;2023-03-20T15:11:58;14.70;;;13.95;;
1460;SDS011;724;49.910;12.530;2023-03-20T15:14:29;15.30;;;14.50;;
1460;SDS011;724;49.910;12.530;2023-03-20T15:17:01;15.20;;;14.40;;
1460;SDS011;724;49.910;12.530;2023-03-20T15:19:28;15.20;;;14.40;;
1460;SDS011;724;49.910;12.530;2023-03-20T15:21:58;14.80;;;14.00;;
1460;SDS011;724;49.910;12.530;2023-03-20T15:24:26;14.60;;;13.90;;
1460;SDS011;724;49.910;12.530;2023-03-20T15:26:55;14.70;;;13.95;;
1460;SDS011;724;49.910;12.530;2023-03-20T15:29:24;14.55;;;13.85;;
1460;SDS011;724;49.910;12.530;2023-03-20T15:31:53;14.10;;;13.40;;
1460;SDS011;724;49.910;12.530;2023-03-20T15:34:23;13.90;;;13.20;;
1460;SDS011;724;49.910;12.530;2023-03-20T15:36:52;13.50;;;12.80;;
1460;SDS011;724;49.910;12.530;2023-03-20T15:39:24;13.50;;;12.80;;
1460;SDS011;724;49.910;12.530;2023-03-20T15:41:53;13.48;;;12.77;;
1460;SDS011;724;49.910;12.530;2023-03-20T15:44:23;13.60;;;12.90;;
1460;SDS011;724;49.910;12.530;2023-03-20T15:46:52;13.80;;;13.10;;
1460;SDS011;724;49.910;12.530;2023-03-20T15:49:22;13.88;;;13.18;;